createdAt,value
2024-03-06T00:00:14.191Z,5.00
2024-03-06T00:02:41.537Z,5.00
2024-03-06T00:05:09.430Z,5.00
2024-03-06T00:07:37.198Z,5.00
2024-03-06T00:10:05.103Z,5.00
2024-03-06T00:12:32.450Z,4.90
2024-03-06T00:14:59.867Z,4.90
2024-03-06T00:17:27.332Z,4.80
2024-03-06T00:19:54.831Z,4.70
2024-03-06T00:22:24.014Z,4.60
2024-03-06T00:24:52.498Z,4.50
2024-03-06T00:27:19.989Z,4.50
2024-03-06T00:29:47.398Z,4.50
2024-03-06T00:32:15.418Z,4.40
2024-03-06T00:34:42.796Z,4.30
2024-03-06T00:37:10.137Z,4.40
2024-03-06T00:39:37.484Z,4.30
2024-03-06T00:42:04.756Z,4.20
2024-03-06T00:44:32.060Z,4.20
2024-03-06T00:46:59.399Z,4.20
2024-03-06T00:49:26.847Z,4.20
2024-03-06T00:51:54.093Z,4.00
2024-03-06T00:54:21.381Z,4.00
2024-03-06T00:56:48.769Z,4.00
2024-03-06T00:59:16.212Z,4.00
2024-03-06T01:01:44.556Z,4.00
2024-03-06T01:04:11.951Z,4.10
2024-03-06T01:06:39.220Z,4.00
2024-03-06T01:09:06.629Z,3.90
2024-03-06T01:11:33.904Z,4.10
2024-03-06T01:14:01.346Z,3.90
2024-03-06T01:16:28.597Z,3.80
2024-03-06T01:18:55.971Z,4.00
2024-03-06T01:21:23.207Z,3.80
2024-03-06T01:23:50.482Z,3.90
2024-03-06T01:26:17.769Z,3.90
2024-03-06T01:28:45.187Z,4.00
2024-03-06T01:31:12.472Z,4.00
2024-03-06T01:33:39.776Z,4.10
2024-03-06T01:36:07.315Z,4.10
2024-03-06T01:38:34.640Z,4.10
2024-03-06T01:41:01.981Z,4.20
2024-03-06T01:43:29.489Z,4.30
2024-03-06T01:45:56.796Z,4.30
2024-03-06T01:48:29.293Z,4.40
2024-03-06T01:50:58.540Z,4.50
2024-03-06T01:53:28.106Z,4.60
2024-03-06T01:55:56.126Z,4.70
2024-03-06T01:58:25.053Z,4.70
2024-03-06T02:00:53.156Z,4.80
2024-03-06T02:03:21.757Z,4.80
2024-03-06T02:05:51.385Z,4.90
2024-03-06T02:08:18.983Z,4.90
2024-03-06T02:10:47.019Z,5.00
2024-03-06T02:13:15.101Z,5.00
2024-03-06T02:15:42.810Z,5.20
2024-03-06T02:18:10.615Z,5.10
2024-03-06T02:20:42.155Z,5.20
2024-03-06T02:23:09.789Z,5.20
2024-03-06T02:25:37.437Z,5.30
2024-03-06T02:28:05.333Z,5.30
2024-03-06T02:30:32.652Z,5.40
2024-03-06T02:33:00.040Z,5.40
2024-03-06T02:35:27.478Z,5.40
2024-03-06T02:37:54.946Z,5.50
2024-03-06T02:40:22.268Z,5.40
2024-03-06T02:42:49.591Z,5.50
2024-03-06T02:45:16.888Z,5.60
2024-03-06T02:47:45.966Z,5.50
2024-03-06T02:50:13.455Z,5.40
2024-03-06T02:52:41.422Z,5.30
2024-03-06T02:55:08.894Z,5.30
2024-03-06T02:57:36.224Z,5.30
2024-03-06T03:00:05.950Z,5.30
2024-03-06T03:02:33.479Z,5.30
2024-03-06T03:05:00.879Z,5.30
2024-03-06T03:07:28.217Z,5.20
2024-03-06T03:09:55.435Z,5.30
2024-03-06T03:12:22.760Z,5.20
2024-03-06T03:14:49.985Z,5.20
2024-03-06T03:17:21.261Z,4.90
2024-03-06T03:19:48.740Z,4.80
2024-03-06T03:22:16.028Z,4.60
2024-03-06T03:24:43.504Z,4.60
2024-03-06T03:27:10.797Z,4.60
2024-03-06T03:29:38.052Z,4.30
2024-03-06T03:32:05.591Z,4.30
2024-03-06T03:34:35.429Z,4.10
2024-03-06T03:37:02.926Z,4.10
2024-03-06T03:39:30.171Z,4.00
2024-03-06T03:41:57.622Z,3.90
2024-03-06T03:44:24.999Z,3.90
2024-03-06T03:46:52.570Z,3.80
2024-03-06T03:49:19.878Z,3.70
2024-03-06T03:51:47.258Z,3.90
2024-03-06T03:54:14.514Z,3.70
2024-03-06T03:56:41.798Z,3.70
2024-03-06T03:59:09.128Z,3.60
2024-03-06T04:01:39.110Z,3.60
2024-03-06T04:04:06.777Z,3.60
2024-03-06T04:06:34.128Z,3.50
2024-03-06T04:09:01.380Z,3.60
2024-03-06T04:11:28.857Z,3.60
2024-03-06T04:13:56.220Z,3.40
2024-03-06T04:16:23.691Z,3.60
2024-03-06T04:18:50.930Z,3.40
2024-03-06T04:21:18.334Z,3.30
2024-03-06T04:23:45.676Z,3.30
2024-03-06T04:26:13.286Z,3.40
2024-03-06T04:28:40.915Z,3.20
2024-03-06T04:31:08.959Z,3.20
2024-03-06T04:33:36.371Z,3.40
2024-03-06T04:36:05.121Z,3.30
2024-03-06T04:38:32.823Z,3.30
2024-03-06T04:41:00.206Z,3.20
2024-03-06T04:43:27.585Z,3.30
2024-03-06T04:45:55.029Z,3.20
2024-03-06T04:48:22.432Z,3.20
2024-03-06T04:50:50.217Z,3.20
2024-03-06T04:53:17.564Z,3.20
2024-03-06T04:55:45.107Z,3.10
2024-03-06T04:58:13.777Z,3.00
2024-03-06T05:00:41.186Z,3.10
2024-03-06T05:58:09.026Z,2.70
2024-03-06T06:00:36.705Z,2.70
2024-03-06T06:03:04.228Z,2.70
2024-03-06T06:05:31.496Z,2.80
2024-03-06T06:07:58.973Z,2.70
2024-03-06T06:10:26.238Z,2.90
2024-03-06T06:12:53.643Z,2.70
2024-03-06T06:15:23.586Z,2.80
2024-03-06T06:17:50.950Z,2.90
2024-03-06T06:20:18.439Z,2.70
2024-03-06T06:22:45.973Z,2.70
2024-03-06T06:25:13.293Z,2.80
2024-03-06T06:27:40.978Z,2.70
2024-03-06T06:30:08.872Z,2.80
2024-03-06T06:32:36.361Z,2.90
2024-03-06T06:35:04.016Z,3.00
2024-03-06T06:37:31.400Z,3.00
2024-03-06T06:39:58.615Z,3.00
2024-03-06T06:42:26.028Z,3.00
2024-03-06T06:44:53.298Z,3.10
2024-03-06T06:47:20.630Z,3.30
2024-03-06T06:49:47.935Z,3.40
2024-03-06T06:52:15.360Z,3.30
2024-03-06T06:54:42.660Z,3.40
2024-03-06T06:57:09.974Z,3.40
2024-03-06T06:59:37.388Z,3.60
2024-03-06T07:02:04.779Z,3.70
2024-03-06T07:04:32.047Z,3.80
2024-03-06T07:06:59.384Z,4.00
2024-03-06T07:09:26.645Z,4.10
2024-03-06T07:11:54.112Z,4.10
2024-03-06T07:14:21.458Z,4.20
2024-03-06T07:16:52.815Z,4.30
2024-03-06T07:19:20.123Z,4.50
2024-03-06T07:21:47.431Z,4.70
2024-03-06T07:24:14.717Z,4.60
2024-03-06T07:26:42.109Z,4.90
2024-03-06T07:29:09.448Z,4.90
2024-03-06T07:31:36.692Z,5.00
2024-03-06T07:34:04.028Z,5.10
2024-03-06T07:36:31.265Z,5.30
2024-03-06T07:38:58.613Z,5.30
2024-03-06T07:41:25.862Z,5.40
2024-03-06T07:43:53.170Z,5.50
2024-03-06T07:46:20.425Z,5.60
2024-03-06T07:48:47.772Z,5.70
2024-03-06T07:51:15.078Z,5.80
2024-03-06T07:53:42.640Z,5.90
2024-03-06T07:56:11.940Z,6.00
2024-03-06T07:58:39.608Z,6.10
2024-03-06T08:01:07.543Z,6.20
2024-03-06T08:03:35.087Z,6.30
2024-03-06T08:06:02.396Z,6.40
2024-03-06T08:08:29.776Z,6.60
2024-03-06T08:10:57.116Z,6.80
2024-03-06T08:13:24.711Z,7.00
2024-03-06T08:15:51.990Z,7.20
2024-03-06T08:18:19.340Z,7.40
2024-03-06T08:20:46.955Z,7.60
2024-03-06T08:23:14.382Z,7.60
2024-03-06T08:25:41.785Z,7.70
2024-03-06T08:28:09.093Z,7.80
2024-03-06T08:30:36.334Z,7.80
2024-03-06T08:33:04.056Z,7.80
2024-03-06T08:35:31.510Z,7.90
2024-03-06T08:37:58.963Z,7.90
2024-03-06T08:40:26.288Z,8.00
2024-03-06T08:42:53.700Z,8.00
2024-03-06T08:45:21.417Z,8.20
2024-03-06T08:47:49.014Z,8.20
2024-03-06T08:50:16.692Z,8.30
2024-03-06T08:52:44.161Z,8.30
2024-03-06T08:55:11.495Z,8.50
2024-03-06T08:57:39.958Z,8.60
2024-03-06T09:00:09.044Z,8.70
2024-03-06T09:02:36.513Z,8.70
2024-03-06T09:05:07.268Z,8.80
2024-03-06T09:07:34.696Z,8.90
2024-03-06T09:10:02.205Z,9.00
2024-03-06T09:12:29.566Z,9.00
2024-03-06T09:14:56.780Z,9.00
2024-03-06T09:17:24.143Z,9.20
2024-03-06T09:20:00.066Z,9.30
2024-03-06T09:22:35.725Z,9.40
2024-03-06T09:25:03.031Z,9.40
2024-03-06T09:27:30.419Z,9.50
2024-03-06T09:29:57.631Z,9.50
2024-03-06T09:32:25.056Z,9.60
2024-03-06T09:34:52.504Z,9.70
2024-03-06T09:37:20.542Z,9.80
2024-03-06T09:39:47.807Z,9.90
2024-03-06T09:42:16.399Z,9.90
2024-03-06T09:44:44.833Z,10.00
2024-03-06T09:47:14.806Z,10.20
2024-03-06T09:49:42.320Z,10.30
2024-03-06T09:52:10.718Z,10.40
2024-03-06T09:54:38.742Z,10.50
2024-03-06T09:57:06.142Z,10.60
2024-03-06T09:59:33.749Z,10.60
2024-03-06T10:02:02.260Z,10.40
2024-03-06T10:04:30.314Z,10.60
2024-03-06T10:06:59.304Z,10.30
2024-03-06T10:09:27.665Z,10.40
2024-03-06T10:11:55.618Z,10.50
2024-03-06T10:14:23.257Z,10.40
2024-03-06T10:16:58.425Z,10.60
2024-03-06T10:19:28.045Z,10.80
2024-03-06T10:21:56.256Z,10.90
2024-03-06T10:24:28.421Z,11.00
2024-03-06T10:26:57.623Z,11.00
2024-03-06T10:29:26.524Z,11.10
2024-03-06T10:31:58.828Z,11.20
2024-03-06T10:34:28.096Z,11.40
2024-03-06T10:36:57.050Z,11.30
2024-03-06T10:39:25.206Z,11.10
2024-03-06T10:41:57.327Z,11.20
2024-03-06T10:44:26.589Z,11.30
2024-03-06T10:47:00.353Z,11.40
2024-03-06T10:49:28.855Z,11.50
2024-03-06T10:52:15.122Z,11.40
2024-03-06T10:54:42.770Z,11.50
2024-03-06T10:57:11.167Z,11.50
2024-03-06T10:59:38.650Z,11.40
2024-03-06T11:02:06.151Z,11.40
2024-03-06T11:04:33.648Z,11.50
2024-03-06T11:07:02.609Z,11.40
2024-03-06T11:09:38.269Z,11.60
2024-03-06T11:12:06.356Z,11.80
2024-03-06T11:14:37.003Z,11.90
2024-03-06T11:17:11.695Z,12.00
2024-03-06T11:20:01.355Z,11.90
2024-03-06T11:22:56.703Z,11.90
2024-03-06T11:25:48.753Z,11.70
2024-03-06T11:28:25.190Z,11.70
2024-03-06T11:30:55.202Z,11.80
2024-03-06T11:33:22.954Z,12.00
2024-03-06T11:36:16.190Z,11.90
2024-03-06T11:38:43.916Z,11.90
2024-03-06T11:41:11.347Z,12.00
2024-03-06T11:43:45.282Z,12.10
2024-03-06T11:46:12.785Z,12.40
2024-03-06T11:48:40.149Z,12.90
2024-03-06T11:51:07.578Z,13.20
2024-03-06T11:53:35.522Z,13.50
2024-03-06T11:56:03.092Z,13.60
2024-03-06T11:58:30.586Z,13.50
2024-03-06T12:00:58.031Z,13.40
2024-03-06T12:03:25.372Z,13.30
2024-03-06T12:05:53.588Z,13.40
2024-03-06T12:08:20.968Z,12.90
2024-03-06T12:10:48.378Z,12.40
2024-03-06T12:13:15.677Z,12.20
2024-03-06T12:15:46.065Z,12.10
2024-03-06T12:18:13.504Z,12.10
2024-03-06T12:20:43.841Z,12.00
2024-03-06T12:23:11.299Z,12.10
2024-03-06T12:25:39.539Z,11.70
2024-03-06T12:28:10.055Z,11.60
2024-03-06T12:30:44.229Z,11.60
2024-03-06T12:33:12.018Z,11.60
2024-03-06T12:35:39.438Z,11.50
2024-03-06T12:38:18.468Z,11.50
2024-03-06T12:40:45.826Z,11.30
2024-03-06T12:43:13.169Z,11.30
2024-03-06T12:45:40.564Z,11.50
2024-03-06T12:48:08.363Z,11.70
2024-03-06T12:50:35.844Z,11.60
2024-03-06T12:53:03.200Z,11.60
2024-03-06T12:55:30.668Z,11.80
2024-03-06T12:57:57.977Z,12.00
2024-03-06T13:00:25.503Z,11.90
2024-03-06T13:02:52.955Z,12.20
2024-03-06T13:05:20.318Z,12.40
2024-03-06T13:07:47.628Z,12.50
2024-03-06T13:10:15.809Z,12.70
2024-03-06T13:12:43.184Z,12.60
2024-03-06T13:15:10.948Z,12.70
2024-03-06T13:17:38.338Z,12.60
2024-03-06T13:20:07.142Z,12.70
2024-03-06T13:22:34.450Z,12.80
2024-03-06T13:25:02.188Z,12.90
2024-03-06T13:27:29.476Z,12.80
2024-03-06T13:29:56.891Z,12.70
2024-03-06T13:32:24.326Z,12.40
2024-03-06T13:34:51.840Z,12.60
2024-03-06T13:37:19.621Z,12.50
2024-03-06T13:39:47.037Z,12.70
2024-03-06T13:42:14.308Z,12.80
2024-03-06T13:44:41.858Z,12.70
2024-03-06T13:47:15.385Z,12.40
2024-03-06T13:49:43.122Z,12.40
2024-03-06T13:52:11.897Z,12.50
2024-03-06T13:54:43.783Z,12.50
2024-03-06T13:57:11.286Z,12.70
2024-03-06T13:59:39.233Z,12.50
2024-03-06T14:02:07.981Z,12.70
2024-03-06T14:04:35.610Z,12.50
2024-03-06T14:07:03.152Z,12.60
2024-03-06T14:09:30.544Z,12.70
2024-03-06T14:11:58.343Z,13.00
2024-03-06T14:14:25.726Z,13.10
2024-03-06T14:16:53.107Z,13.20
2024-03-06T14:19:20.449Z,13.20
2024-03-06T14:21:47.875Z,13.40
2024-03-06T14:24:15.364Z,13.20
2024-03-06T14:26:42.789Z,13.20
2024-03-06T14:29:10.354Z,13.10
2024-03-06T14:31:37.777Z,13.10
2024-03-06T14:34:06.776Z,13.30
2024-03-06T14:36:34.562Z,13.30
2024-03-06T14:39:01.925Z,13.40
2024-03-06T14:41:29.385Z,13.50
2024-03-06T14:43:57.000Z,13.60
2024-03-06T14:46:35.717Z,13.70
2024-03-06T14:49:08.367Z,13.70
2024-03-06T14:51:36.306Z,13.50
2024-03-06T14:54:03.830Z,13.50
2024-03-06T14:56:31.316Z,13.60
2024-03-06T14:58:59.218Z,13.40
2024-03-06T15:01:26.678Z,13.60
2024-03-06T15:03:59.479Z,13.40
2024-03-06T15:06:26.960Z,13.20
2024-03-06T15:08:54.492Z,13.40
2024-03-06T15:11:44.228Z,13.60
2024-03-06T15:14:12.321Z,13.60
2024-03-06T15:16:39.945Z,13.60
2024-03-06T15:19:07.888Z,13.60
2024-03-06T15:21:35.332Z,13.60
2024-03-06T15:24:05.905Z,13.70
2024-03-06T15:26:33.753Z,13.70
2024-03-06T15:29:01.129Z,13.70
2024-03-06T15:31:28.544Z,13.70
2024-03-06T15:33:55.887Z,14.20
2024-03-06T15:36:23.359Z,14.50
2024-03-06T15:38:50.822Z,14.70
2024-03-06T15:41:18.259Z,15.00
2024-03-06T15:43:48.360Z,15.20
2024-03-06T15:46:15.750Z,15.20
2024-03-06T15:48:43.066Z,15.30
2024-03-06T15:51:10.380Z,15.30
2024-03-06T15:53:37.700Z,15.30
2024-03-06T15:56:05.665Z,15.00
2024-03-06T15:58:33.013Z,14.90
2024-03-06T16:01:04.749Z,14.40
2024-03-06T16:03:34.021Z,14.00
2024-03-06T16:06:11.040Z,13.60
2024-03-06T16:08:45.950Z,13.50
2024-03-06T16:11:13.565Z,13.10
2024-03-06T16:13:43.181Z,12.80
2024-03-06T16:16:10.598Z,12.60
2024-03-06T16:18:37.954Z,12.40
2024-03-06T16:21:05.562Z,12.30
2024-03-06T16:23:32.921Z,12.30
2024-03-06T16:29:00.541Z,12.30
2024-03-06T16:31:38.881Z,12.20
2024-03-06T16:34:23.446Z,12.30
2024-03-06T16:36:52.029Z,12.20
2024-03-06T16:39:22.722Z,12.20
2024-03-06T16:41:50.391Z,12.10
2024-03-06T16:44:17.955Z,12.10
2024-03-06T16:46:45.308Z,12.10
2024-03-06T16:49:12.609Z,12.00
2024-03-06T16:51:40.102Z,12.00
2024-03-06T16:54:07.360Z,12.00
2024-03-06T16:56:34.857Z,12.00
2024-03-06T16:59:02.233Z,12.00
2024-03-06T17:01:29.718Z,12.00
2024-03-06T17:03:57.038Z,11.80
2024-03-06T17:06:24.478Z,11.90
2024-03-06T17:08:51.979Z,11.90
2024-03-06T17:11:19.467Z,11.90
2024-03-06T17:13:46.872Z,11.80
2024-03-06T17:16:14.295Z,11.80
2024-03-06T17:18:41.687Z,11.70
2024-03-06T17:21:09.066Z,11.70
2024-03-06T17:23:37.252Z,11.60
2024-03-06T17:26:04.762Z,11.70
2024-03-06T17:28:32.079Z,11.60
2024-03-06T17:30:59.556Z,11.50
2024-03-06T17:33:26.899Z,11.50
2024-03-06T17:35:54.222Z,11.60
2024-03-06T17:38:21.625Z,11.50
2024-03-06T17:40:48.999Z,11.50
2024-03-06T17:43:16.315Z,11.40
2024-03-06T17:45:43.641Z,11.40
2024-03-06T17:48:10.976Z,11.40
2024-03-06T17:50:38.558Z,11.30
2024-03-06T17:53:06.172Z,11.30
2024-03-06T17:55:33.748Z,11.20
2024-03-06T17:58:05.734Z,11.20
2024-03-06T18:00:33.716Z,11.20
2024-03-06T18:03:01.042Z,11.20
2024-03-06T18:05:38.668Z,11.10
2024-03-06T18:08:08.343Z,11.10
2024-03-06T18:10:35.757Z,11.10
2024-03-06T18:13:03.563Z,11.00
2024-03-06T18:15:32.930Z,11.00
2024-03-06T18:18:00.899Z,11.00
2024-03-06T18:20:28.559Z,11.00
2024-03-06T18:23:55.528Z,11.00
2024-03-06T18:26:05.400Z,10.90
2024-03-06T18:28:32.856Z,10.80
2024-03-06T18:31:02.749Z,10.80
2024-03-06T18:33:32.059Z,10.80
2024-03-06T18:35:59.469Z,10.70
2024-03-06T18:38:26.915Z,10.70
2024-03-06T18:40:54.163Z,10.70
2024-03-06T18:43:21.523Z,10.60
2024-03-06T18:45:48.809Z,10.60
2024-03-06T18:48:16.226Z,10.50
2024-03-06T18:50:43.533Z,10.50
2024-03-06T18:53:11.277Z,10.40
2024-03-06T18:55:38.517Z,10.50
2024-03-06T18:58:05.919Z,10.40
2024-03-06T19:00:33.248Z,10.30
2024-03-06T19:03:00.659Z,10.30
2024-03-06T19:05:28.036Z,10.30
2024-03-06T19:07:55.470Z,10.20
2024-03-06T19:10:22.748Z,10.10
2024-03-06T19:12:50.132Z,10.20
2024-03-06T19:15:17.443Z,10.10
2024-03-06T19:17:44.857Z,10.10
2024-03-06T19:20:12.781Z,10.00
2024-03-06T19:22:40.316Z,10.00
2024-03-06T19:25:08.395Z,9.90
2024-03-06T19:27:39.876Z,9.90
2024-03-06T19:30:08.349Z,9.90
2024-03-06T19:32:46.890Z,9.80
2024-03-06T19:35:21.329Z,9.80
2024-03-06T19:37:48.653Z,9.70
2024-03-06T19:40:15.966Z,9.60
2024-03-06T19:42:43.251Z,9.50
2024-03-06T19:45:10.752Z,9.50
2024-03-06T19:47:38.493Z,9.50
2024-03-06T19:50:06.475Z,9.50
2024-03-06T19:52:33.714Z,9.40
2024-03-06T19:55:01.199Z,9.40
2024-03-06T19:57:28.496Z,9.30
2024-03-06T19:59:55.967Z,9.30
2024-03-06T20:02:23.357Z,9.30
2024-03-06T20:04:50.714Z,9.20
2024-03-06T20:07:20.220Z,9.10
2024-03-06T20:09:47.662Z,9.10
2024-03-06T20:12:15.034Z,9.10
2024-03-06T20:14:42.522Z,9.00
2024-03-06T20:17:09.791Z,9.00
2024-03-06T20:19:37.055Z,8.90
2024-03-06T20:22:04.635Z,8.90
2024-03-06T20:24:31.925Z,8.90
2024-03-06T20:26:59.142Z,8.80
2024-03-06T20:29:26.531Z,8.80
2024-03-06T20:31:53.754Z,8.70
2024-03-06T20:34:21.188Z,8.70
2024-03-06T20:36:48.530Z,8.60
2024-03-06T20:39:16.752Z,8.60
2024-03-06T20:41:44.768Z,8.50
2024-03-06T20:44:13.070Z,8.50
2024-03-06T20:46:40.362Z,8.40
2024-03-06T20:49:07.701Z,8.40
2024-03-06T20:51:35.145Z,8.30
2024-03-06T20:54:02.709Z,8.30
2024-03-06T20:56:30.676Z,8.20
2024-03-06T20:58:57.930Z,8.20
2024-03-06T21:01:25.293Z,8.30
2024-03-06T21:03:52.834Z,8.10
2024-03-06T21:06:20.096Z,8.00
2024-03-06T21:08:50.039Z,8.00
2024-03-06T21:11:17.481Z,7.90
2024-03-06T21:13:45.281Z,7.90
2024-03-06T21:16:12.646Z,7.80
2024-03-06T21:18:39.956Z,7.80
2024-03-06T21:21:07.422Z,7.80
2024-03-06T21:23:36.061Z,7.80
2024-03-06T21:26:03.506Z,7.60
2024-03-06T21:28:30.789Z,7.60
2024-03-06T21:30:58.107Z,7.50
2024-03-06T21:33:28.147Z,7.50
2024-03-06T21:35:55.514Z,7.50
2024-03-06T21:38:22.855Z,7.40
2024-03-06T21:40:50.245Z,7.40
2024-03-06T21:43:17.775Z,7.30
2024-03-06T21:45:45.226Z,7.30
2024-03-06T21:48:12.753Z,7.20
2024-03-06T21:50:40.245Z,7.20
2024-03-06T21:53:07.567Z,7.20
2024-03-06T21:55:34.975Z,7.10
2024-03-06T21:58:02.213Z,7.10
2024-03-06T22:00:29.515Z,7.00
2024-03-06T22:02:56.830Z,7.00
2024-03-06T22:05:24.162Z,7.00
2024-03-06T22:07:51.448Z,6.90
2024-03-06T22:10:18.783Z,6.90
2024-03-06T22:12:46.086Z,6.80
2024-03-06T22:15:13.598Z,6.80
2024-03-06T22:17:40.923Z,6.70
2024-03-06T22:20:08.830Z,6.70
2024-03-06T22:22:36.266Z,6.70
2024-03-06T22:25:03.758Z,6.60
2024-03-06T22:27:31.054Z,6.60
2024-03-06T22:29:58.453Z,6.60
